createdAt,value
2023-03-11T00:00:20.775Z,97.49
2023-03-11T00:01:20.767Z,97.59
2023-03-11T00:02:20.804Z,96.83
2023-03-11T00:03:20.758Z,97.21
2023-03-11T00:04:20.749Z,97.30
2023-03-11T00:05:20.850Z,97.11
2023-03-11T00:06:20.732Z,97.02
2023-03-11T00:07:20.721Z,97.11
2023-03-11T00:08:20.719Z,96.92
2023-03-11T00:09:20.707Z,96.73
2023-03-11T00:10:20.734Z,97.30
2023-03-11T00:11:20.695Z,97.49
2023-03-11T00:12:20.679Z,97.02
2023-03-11T00:13:20.665Z,97.02
2023-03-11T00:14:20.660Z,97.30
2023-03-11T00:15:20.656Z,97.11
2023-03-11T00:16:20.691Z,97.21
2023-03-11T00:17:20.636Z,97.11
2023-03-11T00:18:20.643Z,96.83
2023-03-11T00:19:20.633Z,97.02
2023-03-11T00:20:20.611Z,97.30
2023-03-11T00:21:20.612Z,96.55
2023-03-11T00:22:20.602Z,96.83
2023-03-11T00:23:20.590Z,96.55
2023-03-11T00:24:20.581Z,96.26
2023-03-11T00:25:20.589Z,98.06
2023-03-11T00:26:20.555Z,97.97
2023-03-11T00:27:20.548Z,98.63
2023-03-11T00:28:20.563Z,98.87
2023-03-11T00:29:20.550Z,99.06
2023-03-11T00:30:20.546Z,99.82
2023-03-11T00:31:20.578Z,99.15
2023-03-11T00:32:20.519Z,98.21
2023-03-11T00:33:20.490Z,97.45
2023-03-11T00:34:20.481Z,96.41
2023-03-11T00:35:20.484Z,95.84
2023-03-11T00:36:20.471Z,95.26
2023-03-11T00:37:20.466Z,94.70
2023-03-11T00:38:20.545Z,94.60
2023-03-11T00:39:20.448Z,94.08
2023-03-11T00:40:20.432Z,93.99
2023-03-11T00:41:20.443Z,93.61
2023-03-11T00:42:20.418Z,94.08
2023-03-11T00:43:20.406Z,94.37
2023-03-11T00:44:20.417Z,93.99
2023-03-11T00:45:20.384Z,94.27
2023-03-11T00:46:20.397Z,94.93
2023-03-11T00:47:20.362Z,94.56
2023-03-11T00:48:20.355Z,94.74
2023-03-11T00:49:20.354Z,95.12
2023-03-11T00:50:20.339Z,95.50
2023-03-11T00:51:20.330Z,95.41
2023-03-11T00:52:20.325Z,95.31
2023-03-11T00:53:20.354Z,95.41
2023-03-11T00:54:20.303Z,95.22
2023-03-11T00:55:20.316Z,95.12
2023-03-11T00:56:20.285Z,95.60
2023-03-11T00:57:20.279Z,95.41
2023-03-11T00:58:20.279Z,95.22
2023-03-11T00:59:20.254Z,95.41
2023-03-11T01:00:20.261Z,95.60
2023-03-11T01:01:20.289Z,95.41
2023-03-11T01:02:20.236Z,95.41
2023-03-11T01:03:20.243Z,95.41
2023-03-11T01:04:20.288Z,95.50
2023-03-11T01:05:20.204Z,95.41
2023-03-11T01:06:20.192Z,95.50
2023-03-11T01:07:20.191Z,95.60
2023-03-11T01:08:20.171Z,95.31
2023-03-11T01:09:20.218Z,95.22
2023-03-11T01:10:20.166Z,95.22
2023-03-11T01:11:20.150Z,95.60
2023-03-11T01:12:20.148Z,95.41
2023-03-11T01:13:20.138Z,95.79
2023-03-11T01:14:20.123Z,95.12
2023-03-11T01:15:20.127Z,95.22
2023-03-11T01:16:20.159Z,95.22
2023-03-11T01:17:20.097Z,95.22
2023-03-11T01:18:20.092Z,95.31
2023-03-11T01:19:20.075Z,95.12
2023-03-11T01:20:20.103Z,95.26
2023-03-11T01:21:20.061Z,95.22
2023-03-11T01:22:20.038Z,94.89
2023-03-11T01:23:20.037Z,95.26
2023-03-11T01:24:20.051Z,94.89
2023-03-11T01:25:20.074Z,95.74
2023-03-11T01:26:20.011Z,94.98
2023-03-11T01:27:20.009Z,95.22
2023-03-11T01:28:19.996Z,95.74
2023-03-11T01:29:19.985Z,95.26
2023-03-11T01:30:19.985Z,94.98
2023-03-11T01:31:19.994Z,95.17
2023-03-11T01:32:20.044Z,95.36
2023-03-11T01:33:19.947Z,95.55
2023-03-11T01:34:19.926Z,95.07
2023-03-11T01:35:19.941Z,95.93
2023-03-11T01:36:19.928Z,95.64
2023-03-11T01:37:19.913Z,95.64
2023-03-11T01:38:19.897Z,95.74
2023-03-11T01:39:19.891Z,95.55
2023-03-11T01:40:19.870Z,95.64
2023-03-11T01:41:19.878Z,95.74
2023-03-11T01:42:19.863Z,96.21
2023-03-11T01:43:19.852Z,96.12
2023-03-11T01:44:19.872Z,96.40
2023-03-11T01:45:19.840Z,96.21
2023-03-11T01:46:19.882Z,96.40
2023-03-11T01:47:19.909Z,96.40
2023-03-11T01:48:19.815Z,96.50
2023-03-11T01:49:19.795Z,96.21
2023-03-11T01:50:19.789Z,96.50
2023-03-11T01:51:19.792Z,96.40
2023-03-11T01:52:19.765Z,95.93
2023-03-11T01:53:19.769Z,95.83
2023-03-11T01:54:19.762Z,95.93
2023-03-11T01:55:19.737Z,96.02
2023-03-11T01:56:19.739Z,95.55
2023-03-11T01:57:19.729Z,96.50
2023-03-11T01:58:19.709Z,96.78
2023-03-11T01:59:19.726Z,96.50
2023-03-11T02:00:19.715Z,96.40
2023-03-11T02:01:19.750Z,96.21
2023-03-11T02:02:19.697Z,96.88
2023-03-11T02:03:19.735Z,96.59
2023-03-11T02:04:19.652Z,96.21
2023-03-11T02:05:19.641Z,96.12
2023-03-11T02:06:19.627Z,96.50
2023-03-11T02:07:19.614Z,96.40
2023-03-11T02:08:19.617Z,96.69
2023-03-11T02:09:19.616Z,96.59
2023-03-11T02:10:19.608Z,96.59
2023-03-11T02:11:19.598Z,96.88
2023-03-11T02:12:19.587Z,96.12
2023-03-11T02:13:19.580Z,96.21
2023-03-11T02:14:19.570Z,95.83
2023-03-11T02:15:19.566Z,96.88
2023-03-11T02:16:19.615Z,96.50
2023-03-11T02:17:19.531Z,97.16
2023-03-11T02:18:19.525Z,96.78
2023-03-11T02:19:19.504Z,96.59
2023-03-11T02:20:19.519Z,96.97
2023-03-11T02:21:19.505Z,96.97
2023-03-11T02:22:19.502Z,96.59
2023-03-11T02:23:19.492Z,96.78
2023-03-11T02:24:19.472Z,97.06
2023-03-11T02:25:19.455Z,97.16
2023-03-11T02:26:19.451Z,96.50
2023-03-11T02:27:19.455Z,96.88
2023-03-11T02:28:19.433Z,97.16
2023-03-11T02:29:19.433Z,97.73
2023-03-11T02:30:19.422Z,97.25
2023-03-11T02:31:19.449Z,97.35
2023-03-11T02:32:19.423Z,97.16
2023-03-11T02:33:19.387Z,97.06
2023-03-11T02:34:19.375Z,96.69
2023-03-11T02:35:19.364Z,97.06
2023-03-11T02:36:19.374Z,96.69
2023-03-11T02:37:19.355Z,97.44
2023-03-11T02:38:19.332Z,97.63
2023-03-11T02:39:19.317Z,97.54
2023-03-11T02:40:19.311Z,97.06
2023-03-11T02:41:19.300Z,96.88
2023-03-11T02:42:19.298Z,97.16
2023-03-11T02:43:19.293Z,96.88
2023-03-11T02:44:19.276Z,97.25
2023-03-11T02:45:19.297Z,97.06
2023-03-11T02:46:19.341Z,97.16
2023-03-11T02:47:19.268Z,97.54
2023-03-11T02:48:19.233Z,97.16
2023-03-11T02:49:19.230Z,97.54
2023-03-11T02:50:19.221Z,97.06
2023-03-11T02:51:19.248Z,97.44
2023-03-11T02:52:19.207Z,97.82
2023-03-11T02:53:19.183Z,97.92
2023-03-11T02:54:19.178Z,96.69
2023-03-11T02:55:19.170Z,97.06
2023-03-11T02:56:19.169Z,97.54
2023-03-11T02:57:19.152Z,97.73
2023-03-11T02:58:19.145Z,98.01
2023-03-11T02:59:19.146Z,97.63
2023-03-11T03:00:19.125Z,97.25
2023-03-11T03:01:19.195Z,97.25
2023-03-11T03:02:19.105Z,97.92
2023-03-11T03:03:19.091Z,97.06
2023-03-11T03:04:19.146Z,97.73
2023-03-11T03:05:19.096Z,97.25
2023-03-11T03:06:19.067Z,97.73
2023-03-11T03:07:19.052Z,97.44
2023-03-11T03:08:19.054Z,97.25
2023-03-11T03:09:19.046Z,96.78
2023-03-11T03:10:19.040Z,97.16
2023-03-11T03:11:19.017Z,97.54
2023-03-11T03:12:19.002Z,97.92
2023-03-11T03:13:18.988Z,97.44
2023-03-11T03:14:18.987Z,97.82
2023-03-11T03:15:18.969Z,98.11
2023-03-11T03:16:19.070Z,98.11
2023-03-11T03:17:19.011Z,98.01
2023-03-11T03:18:18.947Z,97.06
2023-03-11T03:19:18.941Z,97.54
2023-03-11T03:20:18.922Z,97.82
2023-03-11T03:21:18.915Z,97.06
2023-03-11T03:22:18.938Z,97.73
2023-03-11T03:23:18.902Z,97.82
2023-03-11T03:24:18.897Z,97.92
2023-03-11T03:25:18.873Z,97.92
2023-03-11T03:26:18.867Z,98.20
2023-03-11T03:27:18.853Z,98.11
2023-03-11T03:28:18.852Z,98.11
2023-03-11T03:29:18.845Z,97.82
2023-03-11T03:30:18.828Z,98.58
2023-03-11T03:31:18.888Z,98.01
2023-03-11T03:32:18.840Z,98.39
2023-03-11T03:33:18.805Z,98.58
2023-03-11T03:34:18.786Z,98.58
2023-03-11T03:35:18.778Z,98.58
2023-03-11T03:36:18.789Z,98.68
2023-03-11T03:37:18.757Z,98.39
2023-03-11T03:38:18.741Z,98.86
2023-03-11T03:39:18.773Z,99.05
2023-03-11T03:40:18.761Z,98.58
2023-03-11T03:41:18.744Z,99.05
2023-03-11T03:42:18.714Z,98.77
2023-03-11T03:43:18.713Z,98.96
2023-03-11T03:44:18.697Z,98.58
2023-03-11T03:45:18.684Z,99.43
2023-03-11T03:46:18.740Z,99.52
2023-03-11T03:47:18.679Z,99.52
2023-03-11T03:48:18.663Z,98.96
2023-03-11T03:49:18.644Z,98.58
2023-03-11T03:50:18.627Z,98.68
2023-03-11T03:51:18.618Z,98.39
2023-03-11T03:52:18.608Z,98.58
2023-03-11T03:53:18.613Z,98.68
2023-03-11T03:54:18.593Z,98.49
2023-03-11T03:55:18.604Z,98.30
2023-03-11T03:56:18.578Z,99.05
2023-03-11T03:57:18.568Z,98.96
2023-03-11T03:58:18.545Z,98.58
2023-03-11T03:59:18.554Z,98.30
2023-03-11T04:00:18.544Z,98.49
2023-03-11T04:01:18.546Z,98.58
2023-03-11T04:02:18.565Z,98.77
2023-03-11T04:03:18.664Z,98.30
2023-03-11T04:04:18.499Z,98.58
2023-03-11T04:05:18.495Z,97.92
2023-03-11T04:06:18.475Z,98.11
2023-03-11T04:07:18.482Z,98.01
2023-03-11T04:08:18.465Z,98.20
2023-03-11T04:09:18.458Z,97.82
2023-03-11T04:10:18.433Z,98.58
2023-03-11T04:11:18.449Z,98.39
2023-03-11T04:12:18.436Z,97.92
2023-03-11T04:13:18.408Z,98.11
2023-03-11T04:14:18.401Z,98.20
2023-03-11T04:15:18.388Z,98.11
2023-03-11T04:16:18.497Z,98.58
2023-03-11T04:17:18.372Z,98.30
2023-03-11T04:18:18.359Z,98.49
2023-03-11T04:19:18.355Z,98.20
2023-03-11T04:20:18.347Z,98.30
2023-03-11T04:21:18.340Z,99.05
2023-03-11T04:22:18.326Z,98.68
2023-03-11T04:23:18.330Z,98.68
2023-03-11T04:24:18.300Z,98.39
2023-03-11T04:25:18.300Z,98.39
2023-03-11T04:26:18.285Z,98.58
2023-03-11T04:27:18.270Z,98.39
2023-03-11T04:28:18.288Z,97.73
2023-03-11T04:29:18.258Z,97.82
2023-03-11T04:30:18.249Z,97.82
2023-03-11T04:31:18.307Z,98.01
2023-03-11T04:32:18.239Z,98.01
2023-03-11T04:33:18.236Z,98.11
2023-03-11T04:34:18.208Z,98.11
2023-03-11T04:35:26.195Z,98.01
2023-03-11T04:37:22.226Z,98.01
2023-03-11T04:38:22.152Z,97.73
2023-03-11T04:40:26.153Z,97.82
2023-03-11T04:41:26.184Z,97.92
2023-03-11T04:43:19.267Z,97.73
2023-03-11T04:44:19.223Z,98.58
2023-03-11T04:45:19.203Z,98.49
2023-03-11T04:46:19.285Z,98.58
2023-03-11T04:47:19.184Z,98.49
2023-03-11T04:48:19.186Z,98.68
2023-03-11T04:49:19.176Z,98.01
2023-03-11T04:50:19.159Z,98.58
2023-03-11T04:51:19.147Z,98.11
2023-03-11T04:52:19.151Z,98.30
2023-03-11T04:53:19.137Z,98.68
2023-03-11T04:54:19.134Z,98.68
2023-03-11T04:55:19.113Z,98.77
2023-03-11T04:56:19.097Z,98.39
2023-03-11T04:57:19.132Z,98.11
2023-03-11T04:58:19.089Z,98.86
2023-03-11T04:59:19.071Z,98.01
2023-03-11T05:00:19.060Z,97.73
2023-03-11T05:01:19.110Z,98.39
2023-03-11T05:02:19.046Z,97.73
2023-03-11T05:03:19.133Z,98.11
2023-03-11T05:04:19.130Z,97.35
2023-03-11T05:05:19.040Z,97.25
2023-03-11T05:06:19.012Z,97.82
2023-03-11T05:07:19.016Z,97.92
2023-03-11T05:08:18.980Z,97.92
2023-03-11T05:09:18.991Z,97.35
2023-03-11T05:10:18.988Z,96.97
2023-03-11T05:11:18.952Z,97.92
2023-03-11T05:12:18.941Z,97.82
2023-03-11T05:13:18.934Z,97.92
2023-03-11T05:14:18.931Z,98.20
2023-03-11T05:15:18.921Z,98.39
2023-03-11T05:16:18.970Z,97.92
2023-03-11T05:17:18.898Z,98.11
2023-03-11T05:18:18.888Z,98.11
2023-03-11T05:19:18.878Z,98.01
2023-03-11T05:20:18.872Z,97.82
2023-03-11T05:21:18.862Z,97.25
2023-03-11T05:22:18.908Z,98.01
2023-03-11T05:23:18.862Z,97.73
2023-03-11T05:24:18.858Z,97.63
2023-03-11T05:25:18.847Z,97.63
2023-03-11T05:26:18.821Z,97.25
2023-03-11T05:27:18.814Z,97.63
2023-03-11T05:28:18.810Z,97.25
2023-03-11T05:29:18.785Z,97.54
2023-03-11T05:30:18.777Z,97.54
2023-03-11T05:31:18.802Z,97.35
2023-03-11T05:32:18.849Z,97.82
2023-03-11T05:33:18.749Z,97.44
2023-03-11T05:34:18.772Z,97.82
2023-03-11T05:35:18.795Z,97.92
2023-03-11T05:36:18.714Z,97.73
2023-03-11T05:37:18.716Z,97.06
2023-03-11T05:38:18.703Z,97.25
2023-03-11T05:39:18.720Z,98.01
2023-03-11T05:40:18.706Z,97.44
2023-03-11T05:41:18.673Z,97.06
2023-03-11T05:42:21.208Z,97.63
2023-03-11T05:43:18.649Z,97.35
2023-03-11T05:44:18.668Z,97.25
2023-03-11T05:45:18.641Z,96.97
2023-03-11T05:46:18.662Z,96.97
2023-03-11T05:47:18.614Z,97.16
2023-03-11T05:48:18.613Z,96.88
2023-03-11T05:49:18.609Z,96.97
2023-03-11T05:50:18.604Z,97.06
2023-03-11T05:51:18.595Z,97.44
2023-03-11T05:52:18.710Z,97.16
2023-03-11T05:53:18.557Z,97.82
2023-03-11T05:54:18.540Z,97.63
2023-03-11T05:55:18.576Z,97.73
2023-03-11T05:56:18.527Z,97.25
2023-03-11T05:57:18.521Z,97.54
2023-03-11T05:58:18.732Z,97.06
2023-03-11T05:59:18.501Z,97.16
2023-03-11T06:00:18.482Z,96.97
2023-03-11T06:01:18.478Z,97.16
2023-03-11T06:02:18.465Z,96.59
2023-03-11T06:03:18.477Z,96.59
2023-03-11T06:04:18.547Z,96.50
2023-03-11T06:05:18.616Z,96.78
2023-03-11T06:06:18.425Z,96.88
2023-03-11T06:07:18.420Z,96.78
2023-03-11T06:08:18.404Z,96.78
2023-03-11T06:09:18.428Z,97.35
2023-03-11T06:10:18.413Z,97.16
2023-03-11T06:11:18.375Z,96.88
2023-03-11T06:12:18.371Z,96.50
2023-03-11T06:13:18.356Z,96.40
2023-03-11T06:14:18.345Z,96.88
2023-03-11T06:15:18.344Z,96.50
2023-03-11T06:16:18.386Z,96.50
2023-03-11T06:17:18.314Z,96.69
2023-03-11T06:18:18.317Z,96.50
2023-03-11T06:19:18.296Z,96.88
2023-03-11T06:20:18.300Z,96.59
2023-03-11T06:21:18.284Z,96.88
2023-03-11T06:22:18.301Z,97.06
2023-03-11T06:23:18.271Z,96.40
2023-03-11T06:24:18.249Z,96.50
2023-03-11T06:25:18.248Z,97.16
2023-03-11T06:26:18.245Z,96.50
2023-03-11T06:27:18.231Z,96.59
2023-03-11T06:28:18.238Z,96.59
2023-03-11T06:29:18.284Z,96.59
2023-03-11T06:30:18.203Z,96.50
2023-03-11T06:31:18.262Z,96.21
2023-03-11T06:32:18.196Z,95.83
2023-03-11T06:33:18.161Z,95.55
2023-03-11T06:34:18.172Z,96.02
2023-03-11T06:35:18.178Z,95.74
2023-03-11T06:36:18.150Z,96.21
2023-03-11T06:37:18.151Z,96.69
2023-03-11T06:38:18.143Z,96.31
2023-03-11T06:39:18.131Z,95.83
2023-03-11T06:40:18.103Z,95.64
2023-03-11T06:41:18.083Z,95.64
2023-03-11T06:42:18.085Z,95.83
2023-03-11T06:43:18.078Z,95.74
2023-03-11T06:44:18.093Z,95.64
2023-03-11T06:45:20.549Z,95.64
2023-03-11T06:46:18.102Z,94.98
2023-03-11T06:47:18.023Z,95.17
2023-03-11T06:48:18.019Z,95.55
2023-03-11T06:49:18.028Z,95.17
2023-03-11T06:50:18.005Z,95.26
2023-03-11T06:51:18.003Z,95.64
2023-03-11T06:52:17.995Z,95.64
2023-03-11T06:53:17.988Z,95.26
2023-03-11T06:54:18.032Z,95.26
2023-03-11T06:55:17.955Z,94.98
2023-03-11T06:56:17.943Z,94.51
2023-03-11T06:57:17.935Z,94.89
2023-03-11T06:58:17.924Z,94.60
2023-03-11T06:59:17.937Z,94.32
2023-03-11T07:00:17.907Z,94.13
2023-03-11T07:01:17.958Z,93.75
2023-03-11T07:02:17.887Z,93.75
2023-03-11T07:03:17.874Z,93.46
2023-03-11T07:04:17.934Z,93.37
2023-03-11T07:05:17.870Z,93.65
2023-03-11T07:06:17.871Z,92.90
2023-03-11T07:07:17.849Z,93.27
2023-03-11T07:08:17.843Z,92.90
2023-03-11T07:09:17.825Z,93.37
2023-03-11T07:10:17.823Z,92.43
2023-03-11T07:11:17.817Z,92.24
2023-03-11T07:12:17.790Z,91.57
2023-03-11T07:13:18.041Z,91.57
2023-03-11T07:14:17.763Z,91.48
2023-03-11T07:15:17.755Z,91.67
2023-03-11T07:16:18.195Z,91.95
2023-03-11T07:17:17.792Z,91.57
2023-03-11T07:18:17.744Z,91.38
2023-03-11T07:19:17.830Z,91.57
2023-03-11T07:20:17.818Z,90.81
2023-03-11T07:21:17.703Z,89.92
2023-03-11T07:22:17.885Z,90.25
2023-03-11T07:23:18.189Z,90.81
2023-03-11T07:24:17.880Z,91.00
2023-03-11T07:25:17.677Z,91.57
2023-03-11T07:26:17.676Z,91.48
2023-03-11T07:27:17.804Z,91.86
2023-03-11T07:28:17.662Z,91.48
2023-03-11T07:29:17.646Z,91.57
2023-03-11T07:30:18.214Z,91.38
2023-03-11T07:31:17.642Z,91.67
2023-03-11T07:32:17.995Z,91.57
2023-03-11T07:33:17.593Z,91.76
2023-03-11T07:34:17.670Z,91.86
2023-03-11T07:35:17.790Z,91.86
2023-03-11T07:36:17.575Z,90.91
2023-03-11T07:37:17.829Z,90.53
2023-03-11T07:38:17.980Z,90.91
2023-03-11T07:39:17.752Z,91.00
2023-03-11T07:40:17.544Z,91.00
2023-03-11T07:41:17.512Z,90.81
2023-03-11T07:42:17.528Z,90.34
2023-03-11T07:43:17.497Z,90.34
2023-03-11T07:44:17.503Z,89.96
2023-03-11T07:45:17.771Z,89.58
2023-03-11T07:46:17.719Z,90.06
2023-03-11T07:47:17.454Z,90.06
2023-03-11T07:48:17.455Z,90.15
2023-03-11T07:49:17.467Z,89.96
2023-03-11T07:50:17.444Z,90.06
2023-03-11T07:51:17.430Z,89.96
2023-03-11T07:52:17.415Z,89.87
2023-03-11T07:53:17.398Z,90.06
2023-03-11T07:54:17.399Z,90.15
2023-03-11T07:55:17.417Z,89.87
2023-03-11T07:56:17.388Z,89.68
2023-03-11T07:57:17.410Z,89.30
2023-03-11T07:58:17.407Z,88.92
2023-03-11T07:59:17.348Z,89.87
2023-03-11T08:00:17.358Z,89.58
2023-03-11T08:01:17.352Z,90.06
2023-03-11T08:02:17.405Z,89.77
2023-03-11T08:03:17.356Z,90.25
2023-03-11T08:04:17.324Z,90.34
2023-03-11T08:05:17.300Z,90.15
2023-03-11T08:06:17.294Z,90.44
2023-03-11T08:07:17.277Z,90.95
2023-03-11T08:08:17.281Z,90.39
2023-03-11T08:09:17.282Z,89.06
2023-03-11T08:10:17.252Z,87.73
2023-03-11T08:11:17.266Z,86.69
2023-03-11T08:12:17.237Z,86.88
2023-03-11T08:13:17.238Z,86.60
2023-03-11T08:14:17.236Z,84.99
2023-03-11T08:15:17.239Z,85.27
2023-03-11T08:16:17.231Z,85.17
2023-03-11T08:17:17.235Z,85.17
2023-03-11T08:18:17.230Z,85.27
2023-03-11T08:19:17.220Z,84.80
2023-03-11T08:20:17.182Z,84.80
2023-03-11T08:21:17.185Z,84.89
2023-03-11T08:22:17.318Z,85.17
2023-03-11T08:23:17.178Z,84.89
2023-03-11T08:24:17.171Z,85.17
2023-03-11T08:25:17.174Z,85.17
2023-03-11T08:26:17.152Z,85.46
2023-03-11T08:27:17.144Z,85.27
2023-03-11T08:28:17.164Z,84.80
2023-03-11T08:29:17.115Z,84.89
2023-03-11T08:30:17.151Z,85.93
2023-03-11T08:31:17.207Z,86.45
2023-03-11T08:32:17.144Z,85.88
2023-03-11T08:33:17.110Z,85.22
2023-03-11T08:34:17.121Z,83.65
2023-03-11T08:35:17.086Z,82.79
2023-03-11T08:36:17.077Z,81.94
2023-03-11T08:37:17.099Z,82.04
2023-03-11T08:38:17.081Z,81.37
2023-03-11T08:39:17.103Z,81.47
2023-03-11T08:40:17.082Z,81.33
2023-03-11T08:41:17.094Z,81.99
2023-03-11T08:42:17.074Z,82.42
2023-03-11T08:43:17.048Z,81.62
2023-03-11T08:44:17.054Z,81.71
2023-03-11T08:45:17.134Z,81.90
2023-03-11T08:46:17.125Z,82.28
2023-03-11T08:47:17.066Z,82.56
2023-03-11T08:48:17.037Z,83.23
2023-03-11T08:49:17.022Z,84.27
2023-03-11T08:50:17.036Z,84.08
2023-03-11T08:51:17.042Z,84.36
2023-03-11T08:52:17.003Z,83.89
2023-03-11T08:53:16.998Z,83.85
2023-03-11T08:54:16.991Z,84.42
2023-03-11T08:55:16.991Z,83.75
2023-03-11T08:56:16.977Z,83.66
2023-03-11T08:57:16.963Z,83.37
2023-03-11T08:58:16.974Z,84.42
2023-03-11T08:59:16.948Z,84.42
2023-03-11T09:00:16.945Z,84.23
2023-03-11T09:01:16.958Z,84.23
2023-03-11T09:02:16.954Z,84.61
2023-03-11T09:03:16.939Z,84.23
2023-03-11T09:04:16.981Z,84.23
2023-03-11T09:05:16.919Z,83.94
2023-03-11T09:06:16.989Z,84.42
2023-03-11T09:07:16.914Z,85.17
2023-03-11T09:08:16.901Z,84.80
2023-03-11T09:09:16.884Z,85.46
2023-03-11T09:10:16.888Z,85.36
2023-03-11T09:11:16.896Z,84.80
2023-03-11T09:12:16.912Z,85.36
2023-03-11T09:13:16.854Z,85.36
2023-03-11T09:14:16.859Z,85.27
2023-03-11T09:15:16.911Z,85.17
2023-03-11T09:16:17.004Z,85.36
2023-03-11T09:17:16.838Z,85.93
2023-03-11T09:18:16.816Z,86.60
2023-03-11T09:19:16.789Z,86.03
2023-03-11T09:20:16.796Z,85.74
2023-03-11T09:21:16.797Z,85.93
2023-03-11T09:22:16.804Z,85.93
2023-03-11T09:23:16.774Z,86.41
2023-03-11T09:24:16.763Z,85.84
2023-03-11T09:25:16.760Z,85.08
2023-03-11T09:26:16.749Z,85.46
2023-03-11T09:27:16.729Z,86.03
2023-03-11T09:28:16.782Z,85.93
2023-03-11T09:29:16.721Z,85.93
2023-03-11T09:30:16.729Z,85.65
2023-03-11T09:31:16.823Z,86.22
2023-03-11T09:32:16.726Z,86.41
2023-03-11T09:33:16.707Z,86.22
2023-03-11T09:34:16.686Z,86.41
2023-03-11T09:35:16.677Z,86.69
2023-03-11T09:36:16.672Z,86.79
2023-03-11T09:37:16.661Z,86.98
2023-03-11T09:38:16.655Z,86.31
2023-03-11T09:39:16.653Z,86.69
2023-03-11T09:40:16.665Z,86.22
2023-03-11T09:41:16.637Z,85.84
2023-03-11T09:42:16.667Z,86.03
2023-03-11T09:43:16.658Z,85.65
2023-03-11T09:44:16.613Z,86.03
2023-03-11T09:45:16.621Z,86.79
2023-03-11T09:46:16.646Z,86.22
2023-03-11T09:47:16.570Z,85.74
2023-03-11T09:48:16.558Z,85.08
2023-03-11T09:49:16.549Z,85.46
2023-03-11T09:50:16.553Z,85.46
2023-03-11T09:51:16.534Z,86.22
2023-03-11T09:52:16.583Z,86.31
2023-03-11T09:53:16.556Z,87.26
2023-03-11T09:54:16.509Z,86.98
2023-03-11T09:55:16.500Z,86.98
2023-03-11T09:56:16.495Z,87.07
2023-03-11T09:57:16.488Z,86.98
2023-03-11T09:58:16.510Z,87.07
2023-03-11T09:59:16.472Z,87.54
2023-03-11T10:00:16.461Z,88.02
2023-03-11T10:01:16.489Z,87.83
2023-03-11T10:02:16.510Z,88.02
2023-03-11T10:03:16.492Z,87.92
2023-03-11T10:04:16.447Z,88.02
2023-03-11T10:05:16.421Z,87.64
2023-03-11T10:06:16.411Z,87.35
2023-03-11T10:07:16.401Z,87.45
2023-03-11T10:08:16.393Z,87.64
2023-03-11T10:09:16.393Z,87.92
2023-03-11T10:10:16.407Z,88.02
2023-03-11T10:11:16.374Z,88.40
2023-03-11T10:12:16.396Z,88.40
2023-03-11T10:13:16.367Z,88.11
2023-03-11T10:14:16.345Z,88.21
2023-03-11T10:15:16.370Z,88.02
2023-03-11T10:16:16.386Z,88.40
2023-03-11T10:17:16.323Z,88.59
2023-03-11T10:18:16.316Z,88.78
2023-03-11T10:19:16.293Z,88.68
2023-03-11T10:20:16.305Z,88.68
2023-03-11T10:21:16.392Z,88.59
2023-03-11T10:22:16.334Z,88.40
2023-03-11T10:23:16.295Z,88.40
2023-03-11T10:24:16.270Z,88.40
2023-03-11T10:25:16.246Z,88.40
2023-03-11T10:26:16.228Z,88.02
2023-03-11T10:27:16.236Z,88.21
2023-03-11T10:28:16.216Z,88.21
2023-03-11T10:29:16.224Z,88.49
2023-03-11T10:30:16.221Z,88.49
2023-03-11T10:31:16.244Z,88.68
2023-03-11T10:32:16.207Z,89.15
2023-03-11T10:33:16.172Z,88.87
2023-03-11T10:34:16.159Z,89.34
2023-03-11T10:35:23.326Z,89.82
2023-03-11T10:37:20.206Z,89.53
2023-03-11T10:38:20.182Z,89.63
2023-03-11T10:40:24.378Z,88.96
2023-03-11T10:41:24.148Z,89.29
2023-03-11T10:43:28.181Z,88.44
2023-03-11T10:44:28.132Z,88.92
2023-03-11T10:46:21.017Z,88.92
2023-03-11T10:47:20.992Z,88.44
2023-03-11T10:49:25.032Z,88.06
2023-03-11T10:50:24.980Z,87.21
2023-03-11T10:52:29.571Z,86.83
2023-03-11T10:53:29.389Z,86.45
2023-03-11T10:55:33.181Z,86.50
2023-03-11T10:56:33.142Z,86.31
2023-03-11T10:58:37.111Z,86.50
2023-03-11T10:59:37.092Z,86.88
2023-03-11T11:01:41.092Z,86.79
2023-03-11T11:02:43.560Z,87.16
2023-03-11T11:04:45.023Z,87.73
2023-03-11T11:05:45.011Z,87.35
2023-03-11T11:07:49.019Z,86.88
2023-03-11T11:08:48.991Z,86.88
2023-03-11T11:10:52.974Z,86.88
2023-03-11T11:11:52.934Z,86.98
2023-03-11T11:13:57.414Z,87.07
2023-03-11T11:14:56.917Z,86.50
2023-03-11T11:16:50.433Z,86.50
2023-03-11T11:17:50.170Z,86.22
2023-03-11T11:19:53.974Z,86.98
2023-03-11T11:20:53.946Z,86.98
2023-03-11T11:22:58.389Z,87.07
2023-03-11T11:23:57.918Z,86.41
2023-03-11T11:25:50.908Z,85.74
2023-03-11T11:26:50.848Z,85.93
2023-03-11T11:28:54.836Z,85.93
2023-03-11T11:29:54.862Z,86.50
2023-03-11T11:31:58.843Z,86.03
2023-03-11T11:32:58.835Z,86.03
2023-03-11T11:35:02.793Z,86.50
2023-03-11T11:36:02.771Z,86.50
2023-03-11T11:38:06.787Z,85.74
2023-03-11T11:39:06.755Z,84.99
2023-03-11T11:41:10.721Z,84.70
2023-03-11T11:42:10.702Z,84.70
2023-03-11T11:44:14.698Z,85.17
2023-03-11T11:45:14.650Z,85.46
2023-03-11T11:47:18.640Z,86.12
2023-03-11T11:48:18.630Z,85.88
2023-03-11T11:50:22.647Z,85.97
2023-03-11T11:51:22.620Z,85.50
2023-03-11T11:53:27.084Z,86.16
2023-03-11T11:54:27.059Z,85.78
2023-03-11T11:56:20.004Z,86.07
2023-03-11T11:57:19.947Z,85.69
2023-03-11T11:59:23.964Z,83.89
2023-03-11T12:00:23.916Z,84.27
2023-03-11T12:02:27.916Z,83.80
2023-03-11T12:03:27.892Z,83.32
2023-03-11T12:05:31.867Z,82.28
2023-03-11T12:06:31.834Z,82.28
2023-03-11T12:08:35.881Z,82.94
2023-03-11T12:09:35.799Z,83.42
2023-03-11T12:11:41.819Z,84.27
2023-03-11T12:12:39.766Z,84.08
2023-03-11T12:14:43.934Z,83.04
2023-03-11T12:15:43.823Z,83.23
2023-03-11T12:17:47.782Z,83.13
2023-03-11T12:18:47.758Z,82.85
2023-03-11T12:20:51.779Z,82.28
2023-03-11T12:21:51.739Z,81.33
2023-03-11T12:23:57.627Z,80.57
2023-03-11T12:24:55.773Z,80.67
2023-03-11T12:26:48.630Z,81.05
2023-03-11T12:27:48.625Z,81.43
2023-03-11T12:29:52.708Z,81.99
2023-03-11T12:30:52.722Z,82.28
2023-03-11T12:32:56.613Z,81.99
2023-03-11T12:33:56.588Z,82.09
2023-03-11T12:36:00.667Z,79.53
2023-03-11T12:37:00.534Z,79.44
2023-03-11T12:39:04.544Z,79.34
2023-03-11T12:40:04.506Z,80.00
2023-03-11T12:42:08.547Z,80.95
2023-03-11T12:43:08.475Z,80.57
2023-03-11T12:45:12.490Z,80.67
2023-03-11T12:46:12.488Z,80.29
2023-03-11T12:48:16.508Z,80.19
2023-03-11T12:49:16.443Z,80.67
2023-03-11T12:51:20.427Z,80.67
2023-03-11T12:52:20.408Z,80.57
2023-03-11T12:54:24.425Z,80.67
2023-03-11T12:55:24.385Z,80.95
2023-03-11T12:57:28.407Z,80.19
2023-03-11T12:58:28.354Z,80.19
2023-03-11T13:00:32.342Z,80.57
2023-03-11T13:01:32.373Z,80.57
2023-03-11T13:03:36.341Z,79.25
2023-03-11T13:04:36.302Z,78.58
2023-03-11T13:06:29.191Z,78.11
2023-03-11T13:07:29.211Z,78.02
2023-03-11T13:09:33.165Z,78.30
2023-03-11T13:10:33.153Z,78.49
2023-03-11T13:12:37.122Z,77.83
2023-03-11T13:13:37.097Z,77.73
2023-03-11T13:15:41.116Z,77.06
2023-03-11T13:16:41.158Z,76.59
2023-03-11T13:18:45.191Z,76.68
2023-03-11T13:19:45.141Z,76.87
2023-03-11T13:21:49.131Z,77.83
2023-03-11T13:22:49.131Z,78.39
2023-03-11T13:24:53.155Z,76.59
2023-03-11T13:25:53.118Z,77.35
2023-03-11T13:27:57.104Z,76.68
2023-03-11T13:28:57.099Z,76.78
2023-03-11T13:31:01.109Z,75.74
2023-03-11T13:32:01.075Z,75.93
2023-03-11T13:34:05.528Z,74.98
2023-03-11T13:35:05.078Z,75.26
2023-03-11T13:37:09.041Z,76.31
2023-03-11T13:38:08.991Z,76.12
2023-03-11T13:40:12.964Z,76.21
2023-03-11T13:41:12.954Z,75.55
2023-03-11T13:43:17.000Z,75.55
2023-03-11T13:44:16.939Z,74.88
2023-03-11T13:46:09.995Z,74.60
2023-03-11T13:47:09.844Z,75.07
2023-03-11T13:49:13.810Z,74.41
2023-03-11T13:50:13.771Z,74.41
2023-03-11T13:52:17.782Z,75.17
2023-03-11T13:53:17.751Z,74.41
2023-03-11T13:55:21.738Z,74.41
2023-03-11T13:56:21.765Z,73.56
2023-03-11T13:58:25.751Z,73.46
2023-03-11T13:59:25.723Z,73.46
2023-03-11T14:01:29.785Z,72.52
2023-03-11T14:02:29.741Z,71.28
2023-03-11T14:04:33.718Z,69.57
2023-03-11T14:05:33.676Z,69.96
2023-03-11T14:07:37.758Z,69.20
2023-03-11T14:08:37.642Z,69.38